sensor_id;sensor_type;location;lat;lon;timestamp;pressure;altitude;pressure_sealevel;temperature;humidity
77526;BME280;66627;29.424;-98.496;2024-03-06T00:00:16;98164.90;;;31.20;13.36
77526;BME280;66627;29.424;-98.496;2024-03-06T00:02:42;98164.91;;;30.86;14.33
77526;BME280;66627;29.424;-98.496;2024-03-06T00:05:07;98166.69;;;29.99;14.27
77526;BME280;66627;29.424;-98.496;2024-03-06T00:07:31;98166.98;;;30.54;14.49
77526;BME280;66627;29.424;-98.496;2024-03-06T00:09:58;98165.55;;;30.19;14.74
77526;BME280;66627;29.424;-98.496;2024-03-06T00:12:24;98170.64;;;29.56;15.08
77526;BME280;66627;29.424;-98.496;2024-03-06T00:14:46;98174.52;;;29.36;15.38
77526;BME280;66627;29.424;-98.496;2024-03-06T00:17:13;98176.58;;;29.99;15.46
77526;BME280;66627;29.424;-98.496;2024-03-06T00:19:36;98179.08;;;29.55;15.36
77526;BME280;66627;29.424;-98.496;2024-03-06T00:22:02;98184.36;;;29.18;15.81
77526;BME280;66627;29.424;-98.496;2024-03-06T00:24:28;98189.85;;;29.20;15.76
77526;BME280;66627;29.424;-98.496;2024-03-06T00:26:53;98193.70;;;29.00;16.14
77526;BME280;66627;29.424;-98.496;2024-03-06T00:29:18;98195.69;;;28.67;16.07
77526;BME280;66627;29.424;-98.496;2024-03-06T00:31:45;98198.91;;;28.73;16.33
77526;BME280;66627;29.424;-98.496;2024-03-06T00:34:09;98207.18;;;28.24;16.39
77526;BME280;66627;29.424;-98.496;2024-03-06T00:36:35;98209.22;;;28.34;16.66
77526;BME280;66627;29.424;-98.496;2024-03-06T00:39:00;98213.71;;;28.24;16.66
77526;BME280;66627;29.424;-98.496;2024-03-06T00:41:28;98211.11;;;28.28;16.77
77526;BME280;66627;29.424;-98.496;2024-03-06T00:43:52;98215.83;;;27.98;17.09
77526;BME280;66627;29.424;-98.496;2024-03-06T00:46:17;98218.00;;;27.69;16.90
77526;BME280;66627;29.424;-98.496;2024-03-06T00:48:42;98221.51;;;27.55;17.11
77526;BME280;66627;29.424;-98.496;2024-03-06T00:51:08;98223.58;;;27.66;17.40
77526;BME280;66627;29.424;-98.496;2024-03-06T00:53:34;98227.13;;;27.84;17.37
77526;BME280;66627;29.424;-98.496;2024-03-06T00:56:02;98225.56;;;28.59;17.18
77526;BME280;66627;29.424;-98.496;2024-03-06T00:58:24;98230.97;;;28.84;16.83
77526;BME280;66627;29.424;-98.496;2024-03-06T01:00:51;98236.69;;;26.95;17.91
77526;BME280;66627;29.424;-98.496;2024-03-06T01:03:15;98241.54;;;27.18;17.84
77526;BME280;66627;29.424;-98.496;2024-03-06T01:05:40;98247.75;;;28.03;17.64
77526;BME280;66627;29.424;-98.496;2024-03-06T01:08:06;98251.77;;;28.12;18.07
77526;BME280;66627;29.424;-98.496;2024-03-06T01:10:30;98250.10;;;28.72;17.79
77526;BME280;66627;29.424;-98.496;2024-03-06T01:12:56;98247.60;;;28.51;17.81
77526;BME280;66627;29.424;-98.496;2024-03-06T01:15:22;98251.19;;;27.91;18.03
77526;BME280;66627;29.424;-98.496;2024-03-06T01:17:46;98252.35;;;27.27;18.48
77526;BME280;66627;29.424;-98.496;2024-03-06T01:20:13;98252.47;;;26.38;19.41
77526;BME280;66627;29.424;-98.496;2024-03-06T01:22:38;98259.72;;;26.00;20.04
77526;BME280;66627;29.424;-98.496;2024-03-06T01:25:04;98255.34;;;26.39;19.92
77526;BME280;66627;29.424;-98.496;2024-03-06T01:27:30;98252.62;;;26.03;20.02
77526;BME280;66627;29.424;-98.496;2024-03-06T01:29:54;98254.14;;;25.68;20.65
77526;BME280;66627;29.424;-98.496;2024-03-06T01:32:20;98259.85;;;25.37;21.23
77526;BME280;66627;29.424;-98.496;2024-03-06T01:34:49;98264.51;;;24.90;21.62
77526;BME280;66627;29.424;-98.496;2024-03-06T01:37:11;98270.08;;;26.25;20.83
77526;BME280;66627;29.424;-98.496;2024-03-06T01:39:38;98268.33;;;25.84;21.06
77526;BME280;66627;29.424;-98.496;2024-03-06T01:42:04;98267.57;;;25.91;20.94
77526;BME280;66627;29.424;-98.496;2024-03-06T01:44:29;98267.11;;;25.46;21.53
77526;BME280;66627;29.424;-98.496;2024-03-06T01:46:53;98266.82;;;24.77;22.57
77526;BME280;66627;29.424;-98.496;2024-03-06T01:49:19;98269.20;;;24.28;22.47
77526;BME280;66627;29.424;-98.496;2024-03-06T01:51:50;98272.75;;;24.44;22.30
77526;BME280;66627;29.424;-98.496;2024-03-06T01:54:10;98277.18;;;25.01;22.01
77526;BME280;66627;29.424;-98.496;2024-03-06T01:56:36;98279.26;;;24.82;22.29
77526;BME280;66627;29.424;-98.496;2024-03-06T01:59:05;98285.50;;;24.68;22.33
77526;BME280;66627;29.424;-98.496;2024-03-06T02:01:27;98297.89;;;24.07;23.83
77526;BME280;66627;29.424;-98.496;2024-03-06T02:03:52;98302.40;;;23.45;24.75
77526;BME280;66627;29.424;-98.496;2024-03-06T02:06:18;98309.82;;;23.46;25.74
77526;BME280;66627;29.424;-98.496;2024-03-06T02:08:42;98313.81;;;23.62;25.63
77526;BME280;66627;29.424;-98.496;2024-03-06T02:11:08;98318.44;;;23.36;25.70
77526;BME280;66627;29.424;-98.496;2024-03-06T02:13:33;98320.41;;;23.36;25.75
77526;BME280;66627;29.424;-98.496;2024-03-06T02:15:59;98319.92;;;23.08;26.20
77526;BME280;66627;29.424;-98.496;2024-03-06T02:18:25;98317.38;;;23.09;26.19
77526;BME280;66627;29.424;-98.496;2024-03-06T02:20:50;98316.24;;;23.25;26.14
77526;BME280;66627;29.424;-98.496;2024-03-06T02:23:15;98319.78;;;23.03;26.26
77526;BME280;66627;29.424;-98.496;2024-03-06T02:25:42;98327.42;;;23.03;26.04
77526;BME280;66627;29.424;-98.496;2024-03-06T02:28:06;98332.21;;;23.16;26.23
77526;BME280;66627;29.424;-98.496;2024-03-06T02:30:32;98334.87;;;23.17;26.31
77526;BME280;66627;29.424;-98.496;2024-03-06T02:32:58;98338.03;;;23.14;26.46
77526;BME280;66627;29.424;-98.496;2024-03-06T02:35:24;98339.62;;;22.83;26.28
77526;BME280;66627;29.424;-98.496;2024-03-06T02:37:49;98338.90;;;23.10;26.47
77526;BME280;66627;29.424;-98.496;2024-03-06T02:40:15;98339.05;;;22.95;26.52
77526;BME280;66627;29.424;-98.496;2024-03-06T02:42:40;98345.15;;;23.01;26.64
77526;BME280;66627;29.424;-98.496;2024-03-06T02:45:06;98344.15;;;22.70;26.62
77526;BME280;66627;29.424;-98.496;2024-03-06T02:47:30;98339.29;;;22.89;26.66
77526;BME280;66627;29.424;-98.496;2024-03-06T02:49:55;98339.19;;;23.48;25.83
77526;BME280;66627;29.424;-98.496;2024-03-06T02:52:20;98334.06;;;24.62;24.25
77526;BME280;66627;29.424;-98.496;2024-03-06T02:54:46;98339.24;;;24.23;24.43
77526;BME280;66627;29.424;-98.496;2024-03-06T02:57:12;98336.00;;;24.81;24.79
77526;BME280;66627;29.424;-98.496;2024-03-06T02:59:39;98343.21;;;24.25;25.63
77526;BME280;66627;29.424;-98.496;2024-03-06T03:02:03;98347.93;;;23.98;25.87
77526;BME280;66627;29.424;-98.496;2024-03-06T03:04:27;98351.39;;;24.80;25.16
77526;BME280;66627;29.424;-98.496;2024-03-06T03:06:53;98362.58;;;23.93;25.85
77526;BME280;66627;29.424;-98.496;2024-03-06T03:09:19;98365.04;;;23.64;25.99
77526;BME280;66627;29.424;-98.496;2024-03-06T03:11:44;98363.68;;;24.31;25.67
77526;BME280;66627;29.424;-98.496;2024-03-06T03:14:09;98367.08;;;22.86;26.04
77526;BME280;66627;29.424;-98.496;2024-03-06T03:16:34;98369.12;;;24.37;25.60
77526;BME280;66627;29.424;-98.496;2024-03-06T03:19:00;98365.68;;;24.28;25.21
77526;BME280;66627;29.424;-98.496;2024-03-06T03:21:26;98364.04;;;24.12;25.15
77526;BME280;66627;29.424;-98.496;2024-03-06T03:23:51;98367.92;;;24.10;25.50
77526;BME280;66627;29.424;-98.496;2024-03-06T03:26:17;98366.24;;;22.18;27.91
77526;BME280;66627;29.424;-98.496;2024-03-06T03:28:43;98368.77;;;21.92;28.75
77526;BME280;66627;29.424;-98.496;2024-03-06T03:31:07;98370.12;;;23.10;27.05
77526;BME280;66627;29.424;-98.496;2024-03-06T03:33:35;98373.51;;;22.84;27.07
77526;BME280;66627;29.424;-98.496;2024-03-06T03:35:58;98376.61;;;22.17;28.08
77526;BME280;66627;29.424;-98.496;2024-03-06T03:38:24;98371.34;;;22.46;28.17
77526;BME280;66627;29.424;-98.496;2024-03-06T03:40:50;98371.58;;;22.55;27.24
77526;BME280;66627;29.424;-98.496;2024-03-06T03:43:14;98372.88;;;22.89;27.25
77526;BME280;66627;29.424;-98.496;2024-03-06T03:45:40;98376.35;;;23.66;27.18
77526;BME280;66627;29.424;-98.496;2024-03-06T03:48:07;98370.98;;;22.30;28.56
77526;BME280;66627;29.424;-98.496;2024-03-06T03:50:32;98371.53;;;22.31;28.95
77526;BME280;66627;29.424;-98.496;2024-03-06T03:52:58;98369.55;;;21.95;29.38
77526;BME280;66627;29.424;-98.496;2024-03-06T03:55:24;98368.70;;;21.59;29.31
77526;BME280;66627;29.424;-98.496;2024-03-06T03:57:48;98380.59;;;21.15;30.07
77526;BME280;66627;29.424;-98.496;2024-03-06T04:00:15;98387.06;;;21.01;30.90
77526;BME280;66627;29.424;-98.496;2024-03-06T04:02:39;98386.82;;;20.91;31.61
77526;BME280;66627;29.424;-98.496;2024-03-06T04:05:04;98391.37;;;20.38;32.34
77526;BME280;66627;29.424;-98.496;2024-03-06T04:07:29;98395.75;;;20.31;33.42
77526;BME280;66627;29.424;-98.496;2024-03-06T04:09:54;98396.24;;;20.51;33.36
77526;BME280;66627;29.424;-98.496;2024-03-06T04:12:21;98393.67;;;20.38;33.01
77526;BME280;66627;29.424;-98.496;2024-03-06T04:14:46;98393.43;;;20.43;33.28
77526;BME280;66627;29.424;-98.496;2024-03-06T04:17:12;98393.92;;;20.45;33.36
77526;BME280;66627;29.424;-98.496;2024-03-06T04:19:37;98392.17;;;20.05;33.29
77526;BME280;66627;29.424;-98.496;2024-03-06T04:22:07;98391.34;;;20.06;33.48
77526;BME280;66627;29.424;-98.496;2024-03-06T04:24:28;98394.74;;;19.75;33.50
77526;BME280;66627;29.424;-98.496;2024-03-06T04:26:54;98391.02;;;20.72;33.70
77526;BME280;66627;29.424;-98.496;2024-03-06T04:29:19;98389.40;;;21.59;32.70
77526;BME280;66627;29.424;-98.496;2024-03-06T04:31:44;98393.55;;;22.31;32.20
77526;BME280;66627;29.424;-98.496;2024-03-06T04:34:09;98411.29;;;21.48;31.98
77526;BME280;66627;29.424;-98.496;2024-03-06T04:36:34;98413.60;;;21.69;31.46
77526;BME280;66627;29.424;-98.496;2024-03-06T04:39:00;98410.83;;;20.93;31.33
77526;BME280;66627;29.424;-98.496;2024-03-06T04:41:26;98416.56;;;20.73;32.03
77526;BME280;66627;29.424;-98.496;2024-03-06T04:43:51;98417.17;;;21.10;31.29
77526;BME280;66627;29.424;-98.496;2024-03-06T04:46:17;98415.65;;;22.01;31.25
77526;BME280;66627;29.424;-98.496;2024-03-06T04:48:42;98412.28;;;21.79;30.66
77526;BME280;66627;29.424;-98.496;2024-03-06T04:51:12;98412.50;;;21.68;31.47
77526;BME280;66627;29.424;-98.496;2024-03-06T04:53:32;98410.62;;;22.17;31.49
77526;BME280;66627;29.424;-98.496;2024-03-06T04:55:58;98409.02;;;22.25;31.19
77526;BME280;66627;29.424;-98.496;2024-03-06T04:58:23;98408.63;;;22.72;30.48
77526;BME280;66627;29.424;-98.496;2024-03-06T05:00:50;98411.44;;;20.90;32.08
77526;BME280;66627;29.424;-98.496;2024-03-06T05:03:14;98402.71;;;20.93;32.46
77526;BME280;66627;29.424;-98.496;2024-03-06T05:05:39;98407.29;;;19.80;34.17
77526;BME280;66627;29.424;-98.496;2024-03-06T05:08:05;98404.30;;;19.65;34.12
77526;BME280;66627;29.424;-98.496;2024-03-06T05:10:31;98399.04;;;20.79;33.30
77526;BME280;66627;29.424;-98.496;2024-03-06T05:12:56;98402.81;;;19.82;35.40
77526;BME280;66627;29.424;-98.496;2024-03-06T05:15:21;98412.08;;;18.93;36.42
77526;BME280;66627;29.424;-98.496;2024-03-06T05:17:47;98409.64;;;20.31;34.82
77526;BME280;66627;29.424;-98.496;2024-03-06T05:20:12;98413.84;;;19.74;35.04
77526;BME280;66627;29.424;-98.496;2024-03-06T05:22:38;98413.68;;;20.94;33.93
77526;BME280;66627;29.424;-98.496;2024-03-06T05:25:03;98417.92;;;20.53;33.48
77526;BME280;66627;29.424;-98.496;2024-03-06T05:27:29;98419.13;;;20.09;34.27
77526;BME280;66627;29.424;-98.496;2024-03-06T05:29:55;98419.03;;;19.87;34.67
77526;BME280;66627;29.424;-98.496;2024-03-06T05:32:21;98410.70;;;20.74;33.81
77526;BME280;66627;29.424;-98.496;2024-03-06T05:34:45;98406.88;;;20.69;33.77
77526;BME280;66627;29.424;-98.496;2024-03-06T05:37:11;98413.44;;;19.47;35.68
77526;BME280;66627;29.424;-98.496;2024-03-06T05:39:38;98409.92;;;20.42;33.71
77526;BME280;66627;29.424;-98.496;2024-03-06T05:42:03;98413.06;;;20.85;34.30
77526;BME280;66627;29.424;-98.496;2024-03-06T05:44:28;98418.76;;;21.56;33.53
77526;BME280;66627;29.424;-98.496;2024-03-06T05:46:53;98416.82;;;20.75;34.24
77526;BME280;66627;29.424;-98.496;2024-03-06T05:49:18;98420.78;;;20.07;35.79
77526;BME280;66627;29.424;-98.496;2024-03-06T05:51:43;98425.18;;;19.95;35.25
77526;BME280;66627;29.424;-98.496;2024-03-06T05:54:09;98427.43;;;21.14;33.92
77526;BME280;66627;29.424;-98.496;2024-03-06T05:56:34;98435.22;;;20.54;34.14
77526;BME280;66627;29.424;-98.496;2024-03-06T05:58:59;98437.89;;;21.25;34.34
77526;BME280;66627;29.424;-98.496;2024-03-06T06:01:26;98447.72;;;20.37;34.46
77526;BME280;66627;29.424;-98.496;2024-03-06T06:03:51;98456.78;;;19.68;36.31
77526;BME280;66627;29.424;-98.496;2024-03-06T06:06:17;98456.73;;;20.64;34.76
77526;BME280;66627;29.424;-98.496;2024-03-06T06:08:49;98465.53;;;18.65;37.56
77526;BME280;66627;29.424;-98.496;2024-03-06T06:11:08;98472.60;;;19.19;36.89
77526;BME280;66627;29.424;-98.496;2024-03-06T06:13:34;98481.59;;;18.76;37.96
77526;BME280;66627;29.424;-98.496;2024-03-06T06:16:00;98481.82;;;19.17;37.85
77526;BME280;66627;29.424;-98.496;2024-03-06T06:18:25;98482.59;;;19.07;37.85
77526;BME280;66627;29.424;-98.496;2024-03-06T06:20:51;98480.23;;;19.35;36.54
77526;BME280;66627;29.424;-98.496;2024-03-06T06:23:15;98475.58;;;20.53;35.05
77526;BME280;66627;29.424;-98.496;2024-03-06T06:25:42;98477.16;;;20.10;35.17
77526;BME280;66627;29.424;-98.496;2024-03-06T06:28:06;98483.29;;;20.16;34.62
77526;BME280;66627;29.424;-98.496;2024-03-06T06:30:31;98486.55;;;20.39;33.62
77526;BME280;66627;29.424;-98.496;2024-03-06T06:32:58;98489.17;;;19.78;34.62
77526;BME280;66627;29.424;-98.496;2024-03-06T06:35:23;98488.14;;;19.65;35.15
77526;BME280;66627;29.424;-98.496;2024-03-06T06:37:48;98489.34;;;19.14;35.21
77526;BME280;66627;29.424;-98.496;2024-03-06T06:40:14;98493.04;;;18.41;36.48
77526;BME280;66627;29.424;-98.496;2024-03-06T06:42:44;98490.82;;;19.68;34.02
77526;BME280;66627;29.424;-98.496;2024-03-06T06:45:04;98484.28;;;19.09;34.57
77526;BME280;66627;29.424;-98.496;2024-03-06T06:47:29;98481.21;;;18.17;36.28
77526;BME280;66627;29.424;-98.496;2024-03-06T06:49:55;98479.40;;;17.51;38.06
77526;BME280;66627;29.424;-98.496;2024-03-06T06:52:20;98481.58;;;17.93;38.79
77526;BME280;66627;29.424;-98.496;2024-03-06T06:54:46;98480.98;;;18.80;36.84
77526;BME280;66627;29.424;-98.496;2024-03-06T06:57:11;98487.15;;;20.02;33.91
77526;BME280;66627;29.424;-98.496;2024-03-06T06:59:37;98489.93;;;19.55;34.42
77526;BME280;66627;29.424;-98.496;2024-03-06T07:02:03;98492.77;;;19.12;34.34
77526;BME280;66627;29.424;-98.496;2024-03-06T07:04:32;98493.00;;;19.65;34.37
77526;BME280;66627;29.424;-98.496;2024-03-06T07:06:53;98492.26;;;19.44;34.46
77526;BME280;66627;29.424;-98.496;2024-03-06T07:09:20;98498.56;;;19.28;35.19
77526;BME280;66627;29.424;-98.496;2024-03-06T07:11:45;98499.30;;;19.80;33.85
77526;BME280;66627;29.424;-98.496;2024-03-06T07:14:10;98498.29;;;20.11;34.01
77526;BME280;66627;29.424;-98.496;2024-03-06T07:16:41;98500.44;;;19.73;33.93
77526;BME280;66627;29.424;-98.496;2024-03-06T07:19:00;98499.75;;;20.46;33.08
77526;BME280;66627;29.424;-98.496;2024-03-06T07:21:25;98497.11;;;19.53;33.09
77526;BME280;66627;29.424;-98.496;2024-03-06T07:23:50;98498.66;;;18.05;36.78
77526;BME280;66627;29.424;-98.496;2024-03-06T07:26:17;98488.92;;;18.79;35.49
77526;BME280;66627;29.424;-98.496;2024-03-06T07:28:42;98480.45;;;20.08;34.40
77526;BME280;66627;29.424;-98.496;2024-03-06T07:31:07;98471.73;;;19.45;34.28
77526;BME280;66627;29.424;-98.496;2024-03-06T07:33:32;98471.69;;;19.52;33.65
77526;BME280;66627;29.424;-98.496;2024-03-06T07:35:57;98470.96;;;19.01;34.38
77526;BME280;66627;29.424;-98.496;2024-03-06T07:38:23;98468.16;;;19.52;34.14
77526;BME280;66627;29.424;-98.496;2024-03-06T07:40:48;98467.98;;;18.88;34.96
77526;BME280;66627;29.424;-98.496;2024-03-06T07:43:14;98470.05;;;17.69;37.20
77526;BME280;66627;29.424;-98.496;2024-03-06T07:45:39;98471.85;;;19.56;34.90
77526;BME280;66627;29.424;-98.496;2024-03-06T07:48:05;98466.15;;;19.23;35.76
77526;BME280;66627;29.424;-98.496;2024-03-06T07:50:29;98469.44;;;19.65;36.06
77526;BME280;66627;29.424;-98.496;2024-03-06T07:52:56;98465.48;;;19.86;34.48
77526;BME280;66627;29.424;-98.496;2024-03-06T07:55:21;98462.97;;;19.08;35.61
77526;BME280;66627;29.424;-98.496;2024-03-06T07:57:47;98465.42;;;17.44;38.70
77526;BME280;66627;29.424;-98.496;2024-03-06T08:00:12;98459.71;;;16.70;40.64
77526;BME280;66627;29.424;-98.496;2024-03-06T08:02:37;98456.32;;;17.21;40.04
77526;BME280;66627;29.424;-98.496;2024-03-06T08:05:02;98458.56;;;17.70;39.88
77526;BME280;66627;29.424;-98.496;2024-03-06T08:07:28;98458.93;;;16.25;42.06
77526;BME280;66627;29.424;-98.496;2024-03-06T08:09:53;98461.35;;;16.75;41.89
77526;BME280;66627;29.424;-98.496;2024-03-06T08:12:19;98462.10;;;17.08;41.42
77526;BME280;66627;29.424;-98.496;2024-03-06T08:14:49;98459.26;;;18.20;39.15
77526;BME280;66627;29.424;-98.496;2024-03-06T08:17:10;98457.55;;;17.02;40.20
77526;BME280;66627;29.424;-98.496;2024-03-06T08:19:36;98461.11;;;18.51;37.82
77526;BME280;66627;29.424;-98.496;2024-03-06T08:22:01;98469.31;;;18.30;38.47
77526;BME280;66627;29.424;-98.496;2024-03-06T08:24:26;98468.37;;;16.48;40.53
77526;BME280;66627;29.424;-98.496;2024-03-06T08:26:50;98460.80;;;16.19;40.82
77526;BME280;66627;29.424;-98.496;2024-03-06T08:29:15;98456.83;;;17.53;39.13
77526;BME280;66627;29.424;-98.496;2024-03-06T08:31:42;98460.60;;;18.19;37.83
77526;BME280;66627;29.424;-98.496;2024-03-06T08:34:07;98458.43;;;18.08;38.36
77526;BME280;66627;29.424;-98.496;2024-03-06T08:36:33;98450.97;;;17.55;38.57
77526;BME280;66627;29.424;-98.496;2024-03-06T08:38:58;98449.47;;;17.15;38.66
77526;BME280;66627;29.424;-98.496;2024-03-06T08:41:22;98452.52;;;18.91;36.52
77526;BME280;66627;29.424;-98.496;2024-03-06T08:43:48;98450.46;;;18.13;37.13
77526;BME280;66627;29.424;-98.496;2024-03-06T08:46:13;98448.62;;;19.45;35.83
77526;BME280;66627;29.424;-98.496;2024-03-06T08:48:39;98441.62;;;19.03;35.10
77526;BME280;66627;29.424;-98.496;2024-03-06T08:51:04;98439.78;;;18.82;36.29
77526;BME280;66627;29.424;-98.496;2024-03-06T08:53:29;98440.26;;;18.82;36.10
77526;BME280;66627;29.424;-98.496;2024-03-06T08:55:54;98437.07;;;18.14;37.72
77526;BME280;66627;29.424;-98.496;2024-03-06T08:58:21;98433.89;;;18.85;36.44
77526;BME280;66627;29.424;-98.496;2024-03-06T09:00:46;98439.15;;;18.80;36.97
77526;BME280;66627;29.424;-98.496;2024-03-06T09:03:12;98435.72;;;16.94;40.25
77526;BME280;66627;29.424;-98.496;2024-03-06T09:05:37;98432.40;;;15.58;42.69
77526;BME280;66627;29.424;-98.496;2024-03-06T09:08:02;98435.38;;;15.97;43.83
77526;BME280;66627;29.424;-98.496;2024-03-06T09:10:28;98433.19;;;16.99;43.34
77526;BME280;66627;29.424;-98.496;2024-03-06T09:12:53;98430.23;;;17.86;39.95
77526;BME280;66627;29.424;-98.496;2024-03-06T09:15:18;98430.45;;;17.01;41.57
77526;BME280;66627;29.424;-98.496;2024-03-06T09:17:44;98433.34;;;18.07;39.48
77526;BME280;66627;29.424;-98.496;2024-03-06T09:20:10;98432.23;;;17.74;40.39
77526;BME280;66627;29.424;-98.496;2024-03-06T09:22:35;98431.04;;;16.62;41.82
77526;BME280;66627;29.424;-98.496;2024-03-06T09:25:00;98425.55;;;16.69;42.09
77526;BME280;66627;29.424;-98.496;2024-03-06T09:27:25;98424.62;;;16.29;42.04
77526;BME280;66627;29.424;-98.496;2024-03-06T09:29:51;98422.58;;;16.15;42.81
77526;BME280;66627;29.424;-98.496;2024-03-06T09:32:16;98430.54;;;16.31;43.62
77526;BME280;66627;29.424;-98.496;2024-03-06T09:34:42;98436.10;;;15.79;43.56
77526;BME280;66627;29.424;-98.496;2024-03-06T09:37:07;98443.38;;;17.20;41.23
77526;BME280;66627;29.424;-98.496;2024-03-06T09:39:33;98445.34;;;17.47;41.23
77526;BME280;66627;29.424;-98.496;2024-03-06T09:42:00;98450.57;;;18.19;39.86
77526;BME280;66627;29.424;-98.496;2024-03-06T09:44:24;98447.10;;;18.25;40.30
77526;BME280;66627;29.424;-98.496;2024-03-06T09:46:49;98444.31;;;18.00;40.64
77526;BME280;66627;29.424;-98.496;2024-03-06T09:49:17;98445.83;;;18.58;39.40
77526;BME280;66627;29.424;-98.496;2024-03-06T09:51:43;98444.90;;;18.38;40.01
77526;BME280;66627;29.424;-98.496;2024-03-06T09:54:08;98438.51;;;18.49;39.37
77526;BME280;66627;29.424;-98.496;2024-03-06T09:56:31;98436.81;;;17.32;40.81
77526;BME280;66627;29.424;-98.496;2024-03-06T09:58:57;98438.45;;;16.09;43.17
77526;BME280;66627;29.424;-98.496;2024-03-06T10:01:22;98438.03;;;17.22;41.27
77526;BME280;66627;29.424;-98.496;2024-03-06T10:03:48;98442.68;;;17.60;41.24
77526;BME280;66627;29.424;-98.496;2024-03-06T10:06:13;98441.28;;;17.57;40.77
77526;BME280;66627;29.424;-98.496;2024-03-06T10:08:43;98443.83;;;17.50;41.86
77526;BME280;66627;29.424;-98.496;2024-03-06T10:11:04;98444.50;;;15.75;44.60
77526;BME280;66627;29.424;-98.496;2024-03-06T10:13:30;98436.75;;;16.46;43.49
77526;BME280;66627;29.424;-98.496;2024-03-06T10:15:59;98433.22;;;17.48;41.30
77526;BME280;66627;29.424;-98.496;2024-03-06T10:18:20;98433.80;;;17.80;41.55
77526;BME280;66627;29.424;-98.496;2024-03-06T10:20:45;98437.95;;;18.08;41.11
77526;BME280;66627;29.424;-98.496;2024-03-06T10:23:12;98437.77;;;17.73;40.75
77526;BME280;66627;29.424;-98.496;2024-03-06T10:25:36;98441.81;;;17.09;41.27
77526;BME280;66627;29.424;-98.496;2024-03-06T10:28:06;98438.89;;;16.36;43.27
77526;BME280;66627;29.424;-98.496;2024-03-06T10:30:28;98441.27;;;15.51;44.64
77526;BME280;66627;29.424;-98.496;2024-03-06T10:32:51;98452.96;;;16.84;43.31
77526;BME280;66627;29.424;-98.496;2024-03-06T10:35:20;98453.69;;;17.50;41.61
77526;BME280;66627;29.424;-98.496;2024-03-06T10:37:43;98455.02;;;16.45;43.26
77526;BME280;66627;29.424;-98.496;2024-03-06T10:40:11;98462.49;;;15.32;45.67
77526;BME280;66627;29.424;-98.496;2024-03-06T10:42:34;98460.58;;;16.08;44.78
77526;BME280;66627;29.424;-98.496;2024-03-06T10:45:00;98462.20;;;15.38;46.06
77526;BME280;66627;29.424;-98.496;2024-03-06T10:47:25;98461.07;;;16.49;44.29
77526;BME280;66627;29.424;-98.496;2024-03-06T10:49:50;98463.88;;;15.12;46.41
77526;BME280;66627;29.424;-98.496;2024-03-06T10:52:17;98464.03;;;14.63;47.65
77526;BME280;66627;29.424;-98.496;2024-03-06T10:54:41;98462.49;;;14.83;48.61
77526;BME280;66627;29.424;-98.496;2024-03-06T10:57:07;98465.61;;;16.35;45.18
77526;BME280;66627;29.424;-98.496;2024-03-06T10:59:32;98467.93;;;15.66;45.92
77526;BME280;66627;29.424;-98.496;2024-03-06T11:01:59;98471.14;;;14.85;47.84
77526;BME280;66627;29.424;-98.496;2024-03-06T11:04:25;98478.82;;;16.00;45.79
77526;BME280;66627;29.424;-98.496;2024-03-06T11:06:48;98493.10;;;16.79;44.68
77526;BME280;66627;29.424;-98.496;2024-03-06T11:09:14;98489.56;;;16.42;44.48
77526;BME280;66627;29.424;-98.496;2024-03-06T11:11:48;98498.57;;;14.77;47.48
77526;BME280;66627;29.424;-98.496;2024-03-06T11:14:06;98492.40;;;16.16;44.98
77526;BME280;66627;29.424;-98.496;2024-03-06T11:16:31;98501.82;;;14.91;47.56
77526;BME280;66627;29.424;-98.496;2024-03-06T11:19:05;98502.53;;;14.33;48.81
77526;BME280;66627;29.424;-98.496;2024-03-06T11:21:30;98506.54;;;14.69;48.35
77526;BME280;66627;29.424;-98.496;2024-03-06T11:26:18;98505.76;;;14.14;50.22
77526;BME280;66627;29.424;-98.496;2024-03-06T11:28:38;98500.73;;;14.73;50.26
77526;BME280;66627;29.424;-98.496;2024-03-06T11:31:04;98499.93;;;15.00;49.30
77526;BME280;66627;29.424;-98.496;2024-03-06T11:33:35;98504.59;;;14.92;49.12
77526;BME280;66627;29.424;-98.496;2024-03-06T11:38:20;98508.28;;;14.32;49.95
77526;BME280;66627;29.424;-98.496;2024-03-06T11:40:44;98508.62;;;14.44;50.05
77526;BME280;66627;29.424;-98.496;2024-03-06T11:45:43;98514.30;;;14.78;49.50
77526;BME280;66627;29.424;-98.496;2024-03-06T11:48:02;98508.84;;;14.54;49.86
77526;BME280;66627;29.424;-98.496;2024-03-06T11:50:26;98517.14;;;14.27;50.50
77526;BME280;66627;29.424;-98.496;2024-03-06T11:52:52;98522.62;;;13.97;50.39
77526;BME280;66627;29.424;-98.496;2024-03-06T11:55:17;98516.87;;;14.81;49.52
77526;BME280;66627;29.424;-98.496;2024-03-06T11:57:41;98516.27;;;15.57;47.60
77526;BME280;66627;29.424;-98.496;2024-03-06T12:00:08;98521.77;;;15.63;47.09
77526;BME280;66627;29.424;-98.496;2024-03-06T12:02:31;98520.11;;;16.32;45.97
77526;BME280;66627;29.424;-98.496;2024-03-06T12:04:57;98524.62;;;15.13;46.74
77526;BME280;66627;29.424;-98.496;2024-03-06T12:07:22;98525.19;;;15.96;45.12
77526;BME280;66627;29.424;-98.496;2024-03-06T12:09:47;98526.03;;;15.59;46.44
77526;BME280;66627;29.424;-98.496;2024-03-06T12:12:15;98524.61;;;16.79;44.01
77526;BME280;66627;29.424;-98.496;2024-03-06T12:14:38;98524.76;;;15.95;44.92
77526;BME280;66627;29.424;-98.496;2024-03-06T12:17:03;98523.91;;;16.55;45.42
77526;BME280;66627;29.424;-98.496;2024-03-06T12:19:33;98524.56;;;16.51;44.47
77526;BME280;66627;29.424;-98.496;2024-03-06T12:21:54;98531.06;;;15.89;45.65
77526;BME280;66627;29.424;-98.496;2024-03-06T12:24:19;98531.01;;;15.82;45.65
77526;BME280;66627;29.424;-98.496;2024-03-06T12:26:44;98535.68;;;16.00;45.42
77526;BME280;66627;29.424;-98.496;2024-03-06T12:29:11;98536.88;;;15.88;45.52
77526;BME280;66627;29.424;-98.496;2024-03-06T12:31:36;98543.48;;;16.15;45.80
77526;BME280;66627;29.424;-98.496;2024-03-06T12:34:00;98546.80;;;16.04;45.56
77526;BME280;66627;29.424;-98.496;2024-03-06T12:36:26;98548.27;;;16.32;44.94